Clearwater, Idaho
Current Conditions -  °F | °C
As of 6:35 PM on Friday 24 Oct 2014 (Local Time) from KGIC Reporting Station
Overcast Overcast  
Wind Chill: 48°   Ceiling: 500
Heat Index: 48°   Visibility: 10mi
Dew Point: 46°   Wind: 0mph
Humidity: 92%   Direction: NA
Pressure: 30.05"   Gusts: NA
Location:  46.2989°N, 115.619°W
Report Text: KGIC 250135Z AUTO 00000KT 10SM OVC005 09/08 A3005 RMK AO1 T00870075
Loading
Personal Weather Stations






























Interactive Weather Map
Tropical Storm Tracking
New forecast layout! Learn more

10-Day Weather Forecast

Advertisements
Track Severe Weather on mobile